Portada
METAR-TAF:

METAR-TAF

Aeroports :

Aeroport de Tolosa-Blagnac

Tolosa, França

latitud: 43-38N, longitud: 001-22E, altitud: 152 m

Observació

L'informe es va fer fa 14 hores i 51 minuts, a les 05:00 UTC
Vent 5 kt del Sud
Temperatura 17°C
Humitat 88%
Pressió 1018 hPa
Visibilitat 10 km o més
sense núvols per sota de 1500 mi sense presència de cumulonimbus.

METAR: LFBO 210500Z AUTO 19005KT CAVOK 17/15 Q1018 NOSIG

Hora: 21:51 (19:51 UTC)

Pronòstic

L'informe es va fer fa 14 hores i 51 minuts, a les 05:00 UTC
Pronòstic vàlid del 21 a les 06 UTC al 22 a les 12 UTC
Vent 4 kt del Oest
Visibilitat 10 km o més
sense núvols per sota de 1500 mi sense presència de cumulonimbus.

TAF: LFBO 210500Z 2106/2212 28004KT CAVOK

Observacions i pronòstics meteorològics de més de 4000 aeroports (METAR i TAF).

Les estacions disponibles són els punts grocs i vermells al mapa.

Posi el ratolí al punt desitjat per veure el nom de l'estació.

Feu clic per veure les observacions i els pronòstics meteorològics.

Per canviar el mapa: feu clic els botons verds amb una creu de color negre per apropar; al botó verd amb un guió per allunyar la imatge; o en les fletxes verdes per a mapes adjacents.


METAR-TAF: